Terminal Aerodrome Forecast
Issued by NWS

Home | Current Version | Previous Version | Text Only | Print | Product List | Glossary On
Versions: 1 2 3 4 5 6 7 8 9 10 11 12 13 14
000
FTUS45 KTFX 271700 RRA
TAFHVR
TAF
KHVR 271746Z 2718/2818 VRB05KT P6SM SCT050 BKN150
     FM272300 01008KT P6SM SCT030 BKN060
      TEMPO 2800/2803 3SM -SHSN BR BKN020
     FM280300 02010KT 6SM -SHSN BR SCT010 BKN025
     FM281100 VRB05KT P6SM VCSH SCT020 BKN040=

USA.gov is the U.S. government's official web portal to all federal, state and local government web resources and services.